sensor_id;sensor_type;location;lat;lon;timestamp;temperature;humidity
23147;DHT22;11742;53.532;-1.478;2022-07-30T00:02:23;22.40;62.80
23147;DHT22;11742;53.532;-1.478;2022-07-30T00:04:48;22.40;62.90
23147;DHT22;11742;53.532;-1.478;2022-07-30T00:07:14;22.40;62.90
23147;DHT22;11742;53.532;-1.478;2022-07-30T00:09:40;22.40;62.90
23147;DHT22;11742;53.532;-1.478;2022-07-30T00:12:07;22.40;62.90
23147;DHT22;11742;53.532;-1.478;2022-07-30T00:14:33;22.30;62.80
23147;DHT22;11742;53.532;-1.478;2022-07-30T00:17:00;22.40;62.90
23147;DHT22;11742;53.532;-1.478;2022-07-30T00:19:26;22.30;62.90
23147;DHT22;11742;53.532;-1.478;2022-07-30T00:21:52;22.30;62.90
23147;DHT22;11742;53.532;-1.478;2022-07-30T00:24:19;22.30;63.00
23147;DHT22;11742;53.532;-1.478;2022-07-30T00:26:45;22.30;63.00
23147;DHT22;11742;53.532;-1.478;2022-07-30T00:29:11;22.30;63.00
23147;DHT22;11742;53.532;-1.478;2022-07-30T00:31:37;22.30;63.00
23147;DHT22;11742;53.532;-1.478;2022-07-30T00:34:02;22.30;63.10
23147;DHT22;11742;53.532;-1.478;2022-07-30T00:36:28;22.20;63.00
23147;DHT22;11742;53.532;-1.478;2022-07-30T00:38:54;22.20;63.10
23147;DHT22;11742;53.532;-1.478;2022-07-30T00:41:19;22.20;63.10
23147;DHT22;11742;53.532;-1.478;2022-07-30T00:43:45;22.20;63.10
23147;DHT22;11742;53.532;-1.478;2022-07-30T00:46:11;22.20;63.20
23147;DHT22;11742;53.532;-1.478;2022-07-30T00:48:39;22.20;63.20
23147;DHT22;11742;53.532;-1.478;2022-07-30T00:51:17;22.20;63.20
23147;DHT22;11742;53.532;-1.478;2022-07-30T00:53:42;22.20;63.30
23147;DHT22;11742;53.532;-1.478;2022-07-30T00:56:08;22.10;63.30
23147;DHT22;11742;53.532;-1.478;2022-07-30T00:58:34;22.10;63.30
23147;DHT22;11742;53.532;-1.478;2022-07-30T01:01:00;22.10;64.10
23147;DHT22;11742;53.532;-1.478;2022-07-30T01:03:25;22.10;63.30
23147;DHT22;11742;53.532;-1.478;2022-07-30T01:05:51;22.10;63.40
23147;DHT22;11742;53.532;-1.478;2022-07-30T01:08:17;22.10;63.40
23147;DHT22;11742;53.532;-1.478;2022-07-30T01:10:43;22.00;63.30
23147;DHT22;11742;53.532;-1.478;2022-07-30T01:13:08;22.00;63.30
23147;DHT22;11742;53.532;-1.478;2022-07-30T01:15:34;22.00;63.40
23147;DHT22;11742;53.532;-1.478;2022-07-30T01:18:02;22.00;63.40
23147;DHT22;11742;53.532;-1.478;2022-07-30T01:20:37;22.00;63.40
23147;DHT22;11742;53.532;-1.478;2022-07-30T01:25:54;22.00;63.50
23147;DHT22;11742;53.532;-1.478;2022-07-30T01:28:33;21.90;63.40
23147;DHT22;11742;53.532;-1.478;2022-07-30T01:31:02;21.90;63.40
23147;DHT22;11742;53.532;-1.478;2022-07-30T01:33:28;21.90;63.40
23147;DHT22;11742;53.532;-1.478;2022-07-30T01:35:56;21.90;63.50
23147;DHT22;11742;53.532;-1.478;2022-07-30T01:38:24;21.90;63.50
23147;DHT22;11742;53.532;-1.478;2022-07-30T01:40:52;21.90;63.50
23147;DHT22;11742;53.532;-1.478;2022-07-30T01:43:20;21.90;63.50
23147;DHT22;11742;53.532;-1.478;2022-07-30T01:45:47;21.90;63.60
23147;DHT22;11742;53.532;-1.478;2022-07-30T01:48:16;21.90;63.60
23147;DHT22;11742;53.532;-1.478;2022-07-30T01:50:45;21.90;63.60
23147;DHT22;11742;53.532;-1.478;2022-07-30T01:53:24;21.90;63.70
23147;DHT22;11742;53.532;-1.478;2022-07-30T01:55:51;21.80;63.70
23147;DHT22;11742;53.532;-1.478;2022-07-30T01:58:18;21.80;63.80
23147;DHT22;11742;53.532;-1.478;2022-07-30T02:00:47;21.80;63.90
23147;DHT22;11742;53.532;-1.478;2022-07-30T02:03:13;21.80;63.90
23147;DHT22;11742;53.532;-1.478;2022-07-30T02:05:40;21.80;63.90
23147;DHT22;11742;53.532;-1.478;2022-07-30T02:08:24;21.80;63.80
23147;DHT22;11742;53.532;-1.478;2022-07-30T02:10:57;21.80;63.90
23147;DHT22;11742;53.532;-1.478;2022-07-30T02:13:27;21.70;63.90
23147;DHT22;11742;53.532;-1.478;2022-07-30T02:15:58;21.70;63.90
23147;DHT22;11742;53.532;-1.478;2022-07-30T02:18:44;21.70;63.90
23147;DHT22;11742;53.532;-1.478;2022-07-30T02:21:11;21.70;64.00
23147;DHT22;11742;53.532;-1.478;2022-07-30T02:23:43;21.70;64.00
23147;DHT22;11742;53.532;-1.478;2022-07-30T02:26:13;21.70;64.00
23147;DHT22;11742;53.532;-1.478;2022-07-30T02:28:43;21.70;64.10
23147;DHT22;11742;53.532;-1.478;2022-07-30T02:31:09;21.70;64.10
23147;DHT22;11742;53.532;-1.478;2022-07-30T02:33:39;21.70;64.10
23147;DHT22;11742;53.532;-1.478;2022-07-30T02:36:06;21.70;64.20
23147;DHT22;11742;53.532;-1.478;2022-07-30T02:38:35;21.60;64.10
23147;DHT22;11742;53.532;-1.478;2022-07-30T02:41:01;21.60;64.20
23147;DHT22;11742;53.532;-1.478;2022-07-30T02:43:29;21.60;64.40
23147;DHT22;11742;53.532;-1.478;2022-07-30T02:45:57;21.60;64.30
23147;DHT22;11742;53.532;-1.478;2022-07-30T02:48:24;21.60;64.30
23147;DHT22;11742;53.532;-1.478;2022-07-30T02:50:53;21.60;64.30
23147;DHT22;11742;53.532;-1.478;2022-07-30T02:53:21;21.60;64.40
23147;DHT22;11742;53.532;-1.478;2022-07-30T02:55:48;21.60;64.30
23147;DHT22;11742;53.532;-1.478;2022-07-30T02:58:20;21.60;64.40
23147;DHT22;11742;53.532;-1.478;2022-07-30T03:00:48;21.60;64.30
23147;DHT22;11742;53.532;-1.478;2022-07-30T03:03:15;21.60;64.50
23147;DHT22;11742;53.532;-1.478;2022-07-30T03:05:42;21.50;64.30
23147;DHT22;11742;53.532;-1.478;2022-07-30T03:08:09;21.50;64.40
23147;DHT22;11742;53.532;-1.478;2022-07-30T03:10:36;21.50;64.40
23147;DHT22;11742;53.532;-1.478;2022-07-30T03:13:05;21.50;64.40
23147;DHT22;11742;53.532;-1.478;2022-07-30T03:15:33;21.50;64.40
23147;DHT22;11742;53.532;-1.478;2022-07-30T03:18:00;21.50;64.50
23147;DHT22;11742;53.532;-1.478;2022-07-30T03:20:30;21.50;64.60
23147;DHT22;11742;53.532;-1.478;2022-07-30T03:22:57;21.50;64.60
23147;DHT22;11742;53.532;-1.478;2022-07-30T03:25:26;21.40;64.70
23147;DHT22;11742;53.532;-1.478;2022-07-30T03:27:55;21.50;64.60
23147;DHT22;11742;53.532;-1.478;2022-07-30T03:30:23;21.50;64.60
23147;DHT22;11742;53.532;-1.478;2022-07-30T03:32:51;21.50;64.70
23147;DHT22;11742;53.532;-1.478;2022-07-30T03:35:18;21.40;64.70
23147;DHT22;11742;53.532;-1.478;2022-07-30T03:37:48;21.50;64.80
23147;DHT22;11742;53.532;-1.478;2022-07-30T03:40:14;21.40;65.00
23147;DHT22;11742;53.532;-1.478;2022-07-30T03:42:41;21.40;64.90
23147;DHT22;11742;53.532;-1.478;2022-07-30T03:45:08;21.40;64.90
23147;DHT22;11742;53.532;-1.478;2022-07-30T03:47:37;21.40;65.00
23147;DHT22;11742;53.532;-1.478;2022-07-30T03:50:04;21.40;64.90
23147;DHT22;11742;53.532;-1.478;2022-07-30T03:52:35;21.40;65.00
23147;DHT22;11742;53.532;-1.478;2022-07-30T03:55:03;21.40;65.30
23147;DHT22;11742;53.532;-1.478;2022-07-30T03:57:29;21.40;65.10
23147;DHT22;11742;53.532;-1.478;2022-07-30T03:59:55;21.40;65.10
23147;DHT22;11742;53.532;-1.478;2022-07-30T04:02:21;21.40;65.20
23147;DHT22;11742;53.532;-1.478;2022-07-30T04:04:46;21.40;65.30
23147;DHT22;11742;53.532;-1.478;2022-07-30T04:07:12;21.40;65.50
23147;DHT22;11742;53.532;-1.478;2022-07-30T04:09:38;21.40;65.60
23147;DHT22;11742;53.532;-1.478;2022-07-30T04:12:04;21.40;65.40
23147;DHT22;11742;53.532;-1.478;2022-07-30T04:14:41;21.40;65.40
23147;DHT22;11742;53.532;-1.478;2022-07-30T04:17:18;21.40;65.50
23147;DHT22;11742;53.532;-1.478;2022-07-30T04:19:49;21.40;65.80
23147;DHT22;11742;53.532;-1.478;2022-07-30T04:22:19;21.40;65.80
23147;DHT22;11742;53.532;-1.478;2022-07-30T04:24:47;21.30;65.70
23147;DHT22;11742;53.532;-1.478;2022-07-30T04:27:14;21.30;65.70
23147;DHT22;11742;53.532;-1.478;2022-07-30T04:29:40;21.40;65.90
23147;DHT22;11742;53.532;-1.478;2022-07-30T04:32:07;21.30;65.80
23147;DHT22;11742;53.532;-1.478;2022-07-30T04:34:34;21.30;66.10
23147;DHT22;11742;53.532;-1.478;2022-07-30T04:36:59;21.30;65.80
23147;DHT22;11742;53.532;-1.478;2022-07-30T04:39:25;21.30;65.90
23147;DHT22;11742;53.532;-1.478;2022-07-30T04:41:51;21.30;66.00
23147;DHT22;11742;53.532;-1.478;2022-07-30T04:44:17;21.30;65.90
23147;DHT22;11742;53.532;-1.478;2022-07-30T04:46:43;21.30;66.00
23147;DHT22;11742;53.532;-1.478;2022-07-30T04:49:10;21.30;66.00
23147;DHT22;11742;53.532;-1.478;2022-07-30T04:51:37;21.30;66.00
23147;DHT22;11742;53.532;-1.478;2022-07-30T04:54:05;21.30;66.10
23147;DHT22;11742;53.532;-1.478;2022-07-30T04:56:33;21.30;66.20
23147;DHT22;11742;53.532;-1.478;2022-07-30T04:58:59;21.30;66.20
23147;DHT22;11742;53.532;-1.478;2022-07-30T05:01:30;21.30;66.40
23147;DHT22;11742;53.532;-1.478;2022-07-30T05:03:57;21.30;66.40
23147;DHT22;11742;53.532;-1.478;2022-07-30T05:06:24;21.30;66.40
23147;DHT22;11742;53.532;-1.478;2022-07-30T05:08:50;21.30;66.50
23147;DHT22;11742;53.532;-1.478;2022-07-30T05:11:16;21.30;66.40
23147;DHT22;11742;53.532;-1.478;2022-07-30T05:13:43;21.30;66.60
23147;DHT22;11742;53.532;-1.478;2022-07-30T05:16:09;21.30;66.80
23147;DHT22;11742;53.532;-1.478;2022-07-30T05:18:36;21.30;66.80
23147;DHT22;11742;53.532;-1.478;2022-07-30T05:21:03;21.30;66.70
23147;DHT22;11742;53.532;-1.478;2022-07-30T05:23:29;21.30;67.00
23147;DHT22;11742;53.532;-1.478;2022-07-30T05:25:55;21.30;66.90
23147;DHT22;11742;53.532;-1.478;2022-07-30T05:28:21;21.30;66.90
23147;DHT22;11742;53.532;-1.478;2022-07-30T05:30:47;21.30;68.00
23147;DHT22;11742;53.532;-1.478;2022-07-30T05:33:13;21.30;67.20
23147;DHT22;11742;53.532;-1.478;2022-07-30T05:35:39;21.30;67.30
23147;DHT22;11742;53.532;-1.478;2022-07-30T05:38:05;21.30;67.20
23147;DHT22;11742;53.532;-1.478;2022-07-30T05:40:30;21.30;67.20
23147;DHT22;11742;53.532;-1.478;2022-07-30T05:42:56;21.30;67.20
23147;DHT22;11742;53.532;-1.478;2022-07-30T05:45:22;21.30;67.30
23147;DHT22;11742;53.532;-1.478;2022-07-30T05:47:48;21.30;67.30
23147;DHT22;11742;53.532;-1.478;2022-07-30T05:50:13;21.30;67.20
23147;DHT22;11742;53.532;-1.478;2022-07-30T05:52:39;21.30;67.40
23147;DHT22;11742;53.532;-1.478;2022-07-30T05:55:05;21.20;67.40
23147;DHT22;11742;53.532;-1.478;2022-07-30T05:57:34;21.30;67.60
23147;DHT22;11742;53.532;-1.478;2022-07-30T06:00:03;21.30;67.60
23147;DHT22;11742;53.532;-1.478;2022-07-30T06:02:29;21.30;67.50
23147;DHT22;11742;53.532;-1.478;2022-07-30T06:04:54;21.30;67.50
23147;DHT22;11742;53.532;-1.478;2022-07-30T06:07:20;21.30;67.60
23147;DHT22;11742;53.532;-1.478;2022-07-30T06:09:46;21.30;67.60
23147;DHT22;11742;53.532;-1.478;2022-07-30T06:12:11;21.30;67.80
23147;DHT22;11742;53.532;-1.478;2022-07-30T06:14:37;21.30;68.70
23147;DHT22;11742;53.532;-1.478;2022-07-30T06:17:03;21.30;67.80
23147;DHT22;11742;53.532;-1.478;2022-07-30T06:19:28;21.30;68.00
23147;DHT22;11742;53.532;-1.478;2022-07-30T06:21:54;21.30;68.00
23147;DHT22;11742;53.532;-1.478;2022-07-30T06:24:20;21.30;67.90
23147;DHT22;11742;53.532;-1.478;2022-07-30T06:26:45;21.20;67.90
23147;DHT22;11742;53.532;-1.478;2022-07-30T06:29:11;21.30;68.00
23147;DHT22;11742;53.532;-1.478;2022-07-30T06:31:37;21.30;68.00
23147;DHT22;11742;53.532;-1.478;2022-07-30T06:34:04;21.30;68.20
23147;DHT22;11742;53.532;-1.478;2022-07-30T06:36:30;21.30;68.20
23147;DHT22;11742;53.532;-1.478;2022-07-30T06:38:55;21.30;68.20
23147;DHT22;11742;53.532;-1.478;2022-07-30T06:41:21;21.30;68.50
23147;DHT22;11742;53.532;-1.478;2022-07-30T06:43:48;21.30;68.20
23147;DHT22;11742;53.532;-1.478;2022-07-30T06:46:15;21.30;68.00
23147;DHT22;11742;53.532;-1.478;2022-07-30T06:48:41;21.30;67.90
23147;DHT22;11742;53.532;-1.478;2022-07-30T06:51:07;21.30;67.80
23147;DHT22;11742;53.532;-1.478;2022-07-30T06:53:33;21.30;68.30
23147;DHT22;11742;53.532;-1.478;2022-07-30T06:55:59;21.30;68.00
23147;DHT22;11742;53.532;-1.478;2022-07-30T06:58:25;21.30;68.30
23147;DHT22;11742;53.532;-1.478;2022-07-30T07:00:51;21.30;68.40
23147;DHT22;11742;53.532;-1.478;2022-07-30T07:03:16;21.30;68.40
23147;DHT22;11742;53.532;-1.478;2022-07-30T07:05:42;21.30;68.40
23147;DHT22;11742;53.532;-1.478;2022-07-30T07:08:08;21.30;68.50
23147;DHT22;11742;53.532;-1.478;2022-07-30T07:10:34;21.30;68.40
23147;DHT22;11742;53.532;-1.478;2022-07-30T07:12:59;21.30;68.50
23147;DHT22;11742;53.532;-1.478;2022-07-30T07:15:26;21.30;68.60
23147;DHT22;11742;53.532;-1.478;2022-07-30T07:17:52;21.20;68.50
23147;DHT22;11742;53.532;-1.478;2022-07-30T07:20:17;21.30;68.70
23147;DHT22;11742;53.532;-1.478;2022-07-30T07:22:43;21.30;68.80
23147;DHT22;11742;53.532;-1.478;2022-07-30T07:25:09;21.30;68.70
23147;DHT22;11742;53.532;-1.478;2022-07-30T07:27:36;21.30;68.80
23147;DHT22;11742;53.532;-1.478;2022-07-30T07:30:02;21.30;68.80
23147;DHT22;11742;53.532;-1.478;2022-07-30T07:32:29;21.30;69.00
23147;DHT22;11742;53.532;-1.478;2022-07-30T07:34:54;21.20;69.00
23147;DHT22;11742;53.532;-1.478;2022-07-30T07:37:20;21.30;69.20
23147;DHT22;11742;53.532;-1.478;2022-07-30T07:39:46;21.30;69.10
23147;DHT22;11742;53.532;-1.478;2022-07-30T07:42:13;21.30;69.20
23147;DHT22;11742;53.532;-1.478;2022-07-30T07:44:39;21.30;69.20
23147;DHT22;11742;53.532;-1.478;2022-07-30T07:47:05;21.30;69.10
23147;DHT22;11742;53.532;-1.478;2022-07-30T07:49:30;21.30;68.90
23147;DHT22;11742;53.532;-1.478;2022-07-30T07:51:56;21.30;68.80
23147;DHT22;11742;53.532;-1.478;2022-07-30T07:54:22;21.30;68.60
23147;DHT22;11742;53.532;-1.478;2022-07-30T07:56:47;21.30;68.50
23147;DHT22;11742;53.532;-1.478;2022-07-30T07:59:16;21.30;68.50
23147;DHT22;11742;53.532;-1.478;2022-07-30T08:01:41;21.30;68.50
23147;DHT22;11742;53.532;-1.478;2022-07-30T08:04:07;21.30;68.50
23147;DHT22;11742;53.532;-1.478;2022-07-30T08:06:33;21.40;68.30
23147;DHT22;11742;53.532;-1.478;2022-07-30T08:08:59;21.30;68.20
23147;DHT22;11742;53.532;-1.478;2022-07-30T08:11:27;21.40;68.30
23147;DHT22;11742;53.532;-1.478;2022-07-30T08:13:52;21.40;68.30
23147;DHT22;11742;53.532;-1.478;2022-07-30T08:16:19;21.40;68.60
23147;DHT22;11742;53.532;-1.478;2022-07-30T08:18:44;21.40;68.50
23147;DHT22;11742;53.532;-1.478;2022-07-30T08:21:10;21.40;68.40
23147;DHT22;11742;53.532;-1.478;2022-07-30T08:23:36;21.40;68.60
23147;DHT22;11742;53.532;-1.478;2022-07-30T08:26:02;21.40;68.70
23147;DHT22;11742;53.532;-1.478;2022-07-30T08:28:28;21.40;68.60
23147;DHT22;11742;53.532;-1.478;2022-07-30T08:30:54;21.50;68.60
23147;DHT22;11742;53.532;-1.478;2022-07-30T08:33:20;21.50;68.60
23147;DHT22;11742;53.532;-1.478;2022-07-30T08:35:45;21.50;68.70
23147;DHT22;11742;53.532;-1.478;2022-07-30T08:38:12;21.50;68.70
23147;DHT22;11742;53.532;-1.478;2022-07-30T08:40:38;21.50;68.70
23147;DHT22;11742;53.532;-1.478;2022-07-30T08:43:05;21.50;68.70
23147;DHT22;11742;53.532;-1.478;2022-07-30T08:45:32;21.50;68.70
23147;DHT22;11742;53.532;-1.478;2022-07-30T08:47:59;21.60;68.80
23147;DHT22;11742;53.532;-1.478;2022-07-30T08:50:27;21.60;69.20
23147;DHT22;11742;53.532;-1.478;2022-07-30T08:52:54;21.60;69.20
23147;DHT22;11742;53.532;-1.478;2022-07-30T08:55:21;21.60;69.20
23147;DHT22;11742;53.532;-1.478;2022-07-30T08:57:48;21.60;69.30
23147;DHT22;11742;53.532;-1.478;2022-07-30T09:00:14;21.60;69.30
23147;DHT22;11742;53.532;-1.478;2022-07-30T09:02:41;21.70;69.70
23147;DHT22;11742;53.532;-1.478;2022-07-30T09:05:08;21.70;69.80
23147;DHT22;11742;53.532;-1.478;2022-07-30T09:07:35;21.80;70.10
23147;DHT22;11742;53.532;-1.478;2022-07-30T09:10:02;21.80;69.80
23147;DHT22;11742;53.532;-1.478;2022-07-30T09:15:04;21.80;70.10
23147;DHT22;11742;53.532;-1.478;2022-07-30T09:20:21;21.90;70.00
23147;DHT22;11742;53.532;-1.478;2022-07-30T09:22:50;21.90;70.00
23147;DHT22;11742;53.532;-1.478;2022-07-30T09:27:57;22.00;70.00
23147;DHT22;11742;53.532;-1.478;2022-07-30T09:30:22;22.00;70.00
23147;DHT22;11742;53.532;-1.478;2022-07-30T09:32:54;22.00;70.00
23147;DHT22;11742;53.532;-1.478;2022-07-30T09:35:23;22.00;69.90
23147;DHT22;11742;53.532;-1.478;2022-07-30T09:37:58;22.00;69.90
23147;DHT22;11742;53.532;-1.478;2022-07-30T09:40:25;22.10;70.00
23147;DHT22;11742;53.532;-1.478;2022-07-30T09:43:11;22.10;69.90
23147;DHT22;11742;53.532;-1.478;2022-07-30T09:45:53;22.10;70.80
23147;DHT22;11742;53.532;-1.478;2022-07-30T09:48:21;22.10;70.10
23147;DHT22;11742;53.532;-1.478;2022-07-30T09:50:49;22.10;70.30
23147;DHT22;11742;53.532;-1.478;2022-07-30T09:53:15;22.20;70.10
23147;DHT22;11742;53.532;-1.478;2022-07-30T09:55:41;22.20;70.20
23147;DHT22;11742;53.532;-1.478;2022-07-30T09:58:07;22.20;70.20
23147;DHT22;11742;53.532;-1.478;2022-07-30T10:00:35;22.20;70.30
23147;DHT22;11742;53.532;-1.478;2022-07-30T10:03:13;22.20;70.20
23147;DHT22;11742;53.532;-1.478;2022-07-30T10:05:58;22.30;70.10
23147;DHT22;11742;53.532;-1.478;2022-07-30T10:08:48;22.30;70.20
23147;DHT22;11742;53.532;-1.478;2022-07-30T10:11:19;22.30;70.20
23147;DHT22;11742;53.532;-1.478;2022-07-30T10:13:49;22.30;70.40
23147;DHT22;11742;53.532;-1.478;2022-07-30T10:16:16;22.40;70.30
23147;DHT22;11742;53.532;-1.478;2022-07-30T10:18:42;22.40;70.30
23147;DHT22;11742;53.532;-1.478;2022-07-30T10:21:08;22.40;70.30
23147;DHT22;11742;53.532;-1.478;2022-07-30T10:23:35;22.40;70.30
23147;DHT22;11742;53.532;-1.478;2022-07-30T10:26:01;22.40;70.30
23147;DHT22;11742;53.532;-1.478;2022-07-30T10:28:29;22.40;70.30
23147;DHT22;11742;53.532;-1.478;2022-07-30T10:30:57;22.50;70.60
23147;DHT22;11742;53.532;-1.478;2022-07-30T10:33:25;22.50;70.40
23147;DHT22;11742;53.532;-1.478;2022-07-30T10:35:51;22.50;70.50
23147;DHT22;11742;53.532;-1.478;2022-07-30T10:38:19;22.60;70.40
23147;DHT22;11742;53.532;-1.478;2022-07-30T10:41:06;22.60;70.50
23147;DHT22;11742;53.532;-1.478;2022-07-30T10:48:50;22.60;70.40
23147;DHT22;11742;53.532;-1.478;2022-07-30T10:51:16;22.60;70.40
23147;DHT22;11742;53.532;-1.478;2022-07-30T10:53:43;22.70;70.50
23147;DHT22;11742;53.532;-1.478;2022-07-30T10:56:19;22.60;70.60
23147;DHT22;11742;53.532;-1.478;2022-07-30T10:59:07;22.70;70.90
23147;DHT22;11742;53.532;-1.478;2022-07-30T11:04:17;22.70;71.70
23147;DHT22;11742;53.532;-1.478;2022-07-30T11:06:44;22.70;71.80
23147;DHT22;11742;53.532;-1.478;2022-07-30T11:09:41;22.70;71.50
23147;DHT22;11742;53.532;-1.478;2022-07-30T11:12:08;22.80;71.30
23147;DHT22;11742;53.532;-1.478;2022-07-30T11:15:00;22.80;71.50
23147;DHT22;11742;53.532;-1.478;2022-07-30T11:17:59;22.80;71.70
23147;DHT22;11742;53.532;-1.478;2022-07-30T11:20:26;22.80;71.90
23147;DHT22;11742;53.532;-1.478;2022-07-30T11:22:52;22.80;71.40
23147;DHT22;11742;53.532;-1.478;2022-07-30T11:28:02;22.90;71.40
23147;DHT22;11742;53.532;-1.478;2022-07-30T11:30:31;22.90;71.30
23147;DHT22;11742;53.532;-1.478;2022-07-30T11:33:24;23.00;71.50
23147;DHT22;11742;53.532;-1.478;2022-07-30T11:36:10;23.00;72.00
23147;DHT22;11742;53.532;-1.478;2022-07-30T11:38:57;23.00;72.20
23147;DHT22;11742;53.532;-1.478;2022-07-30T11:41:23;23.00;72.00
23147;DHT22;11742;53.532;-1.478;2022-07-30T11:44:25;23.00;71.90
23147;DHT22;11742;53.532;-1.478;2022-07-30T11:46:52;23.10;71.70
23147;DHT22;11742;53.532;-1.478;2022-07-30T11:49:18;23.10;71.90
23147;DHT22;11742;53.532;-1.478;2022-07-30T11:51:45;23.10;72.00
23147;DHT22;11742;53.532;-1.478;2022-07-30T11:54:12;23.20;72.00
23147;DHT22;11742;53.532;-1.478;2022-07-30T11:56:52;23.20;72.30
23147;DHT22;11742;53.532;-1.478;2022-07-30T11:59:18;23.20;72.60
23147;DHT22;11742;53.532;-1.478;2022-07-30T12:01:49;23.20;73.10
23147;DHT22;11742;53.532;-1.478;2022-07-30T12:04:14;23.20;73.40
23147;DHT22;11742;53.532;-1.478;2022-07-30T12:06:44;23.30;73.40
23147;DHT22;11742;53.532;-1.478;2022-07-30T12:09:10;23.30;73.40
23147;DHT22;11742;53.532;-1.478;2022-07-30T12:11:36;23.30;73.40
23147;DHT22;11742;53.532;-1.478;2022-07-30T12:14:03;23.30;73.40
23147;DHT22;11742;53.532;-1.478;2022-07-30T12:16:30;23.40;73.40
23147;DHT22;11742;53.532;-1.478;2022-07-30T12:19:06;23.40;73.10
23147;DHT22;11742;53.532;-1.478;2022-07-30T12:21:32;23.40;73.10
23147;DHT22;11742;53.532;-1.478;2022-07-30T12:24:05;23.50;73.40
23147;DHT22;11742;53.532;-1.478;2022-07-30T12:26:34;23.50;73.30
23147;DHT22;11742;53.532;-1.478;2022-07-30T12:29:02;23.50;73.20
23147;DHT22;11742;53.532;-1.478;2022-07-30T12:31:29;23.50;74.20
23147;DHT22;11742;53.532;-1.478;2022-07-30T12:33:55;23.50;73.50
23147;DHT22;11742;53.532;-1.478;2022-07-30T12:38:53;23.60;72.80
23147;DHT22;11742;53.532;-1.478;2022-07-30T12:41:21;23.60;72.80
23147;DHT22;11742;53.532;-1.478;2022-07-30T12:43:53;23.60;72.70
23147;DHT22;11742;53.532;-1.478;2022-07-30T12:46:24;23.60;72.60
23147;DHT22;11742;53.532;-1.478;2022-07-30T12:49:00;23.60;72.70
23147;DHT22;11742;53.532;-1.478;2022-07-30T12:51:49;23.70;72.60
23147;DHT22;11742;53.532;-1.478;2022-07-30T12:54:17;23.70;72.30
23147;DHT22;11742;53.532;-1.478;2022-07-30T12:57:00;23.70;72.20
23147;DHT22;11742;53.532;-1.478;2022-07-30T12:59:27;23.70;72.10
23147;DHT22;11742;53.532;-1.478;2022-07-30T13:01:53;23.70;72.00
23147;DHT22;11742;53.532;-1.478;2022-07-30T13:04:22;23.70;72.10
23147;DHT22;11742;53.532;-1.478;2022-07-30T13:09:32;23.80;72.00
23147;DHT22;11742;53.532;-1.478;2022-07-30T13:11:58;23.80;72.00
23147;DHT22;11742;53.532;-1.478;2022-07-30T13:14:23;23.80;72.10
23147;DHT22;11742;53.532;-1.478;2022-07-30T13:16:49;23.80;72.00
23147;DHT22;11742;53.532;-1.478;2022-07-30T13:19:17;23.80;71.90
23147;DHT22;11742;53.532;-1.478;2022-07-30T13:21:43;23.90;72.00
23147;DHT22;11742;53.532;-1.478;2022-07-30T13:24:08;23.90;72.00
23147;DHT22;11742;53.532;-1.478;2022-07-30T13:26:35;23.90;71.80
23147;DHT22;11742;53.532;-1.478;2022-07-30T13:29:02;23.90;71.70
23147;DHT22;11742;53.532;-1.478;2022-07-30T13:31:28;23.90;72.00
23147;DHT22;11742;53.532;-1.478;2022-07-30T13:33:54;23.90;72.00
23147;DHT22;11742;53.532;-1.478;2022-07-30T13:36:20;23.90;71.90
23147;DHT22;11742;53.532;-1.478;2022-07-30T13:38:45;23.90;72.00
23147;DHT22;11742;53.532;-1.478;2022-07-30T13:41:11;24.00;72.00
23147;DHT22;11742;53.532;-1.478;2022-07-30T13:43:37;24.00;71.90
23147;DHT22;11742;53.532;-1.478;2022-07-30T13:46:04;24.00;71.80
23147;DHT22;11742;53.532;-1.478;2022-07-30T13:48:33;24.10;71.80
23147;DHT22;11742;53.532;-1.478;2022-07-30T13:51:00;24.00;71.60
23147;DHT22;11742;53.532;-1.478;2022-07-30T13:53:26;24.10;71.60
23147;DHT22;11742;53.532;-1.478;2022-07-30T13:55:53;24.10;71.60
23147;DHT22;11742;53.532;-1.478;2022-07-30T13:58:18;24.10;71.40
23147;DHT22;11742;53.532;-1.478;2022-07-30T14:00:44;24.10;71.50
23147;DHT22;11742;53.532;-1.478;2022-07-30T14:03:13;24.10;71.40
23147;DHT22;11742;53.532;-1.478;2022-07-30T14:05:39;24.10;71.60
23147;DHT22;11742;53.532;-1.478;2022-07-30T14:08:06;24.10;71.70
23147;DHT22;11742;53.532;-1.478;2022-07-30T14:10:33;24.20;71.50
23147;DHT22;11742;53.532;-1.478;2022-07-30T14:13:00;24.10;71.40
23147;DHT22;11742;53.532;-1.478;2022-07-30T14:15:27;24.20;71.50
23147;DHT22;11742;53.532;-1.478;2022-07-30T14:17:55;24.20;71.40
23147;DHT22;11742;53.532;-1.478;2022-07-30T14:20:21;24.20;71.50
23147;DHT22;11742;53.532;-1.478;2022-07-30T14:22:47;24.20;71.40
23147;DHT22;11742;53.532;-1.478;2022-07-30T14:25:13;24.20;71.60
23147;DHT22;11742;53.532;-1.478;2022-07-30T14:27:40;24.20;71.60
23147;DHT22;11742;53.532;-1.478;2022-07-30T14:30:07;24.30;71.80
23147;DHT22;11742;53.532;-1.478;2022-07-30T14:32:34;24.20;71.60
23147;DHT22;11742;53.532;-1.478;2022-07-30T14:35:00;24.30;72.00
23147;DHT22;11742;53.532;-1.478;2022-07-30T14:37:26;24.30;72.20
23147;DHT22;11742;53.532;-1.478;2022-07-30T14:39:52;24.30;72.00
23147;DHT22;11742;53.532;-1.478;2022-07-30T14:42:18;24.40;72.00
23147;DHT22;11742;53.532;-1.478;2022-07-30T14:44:45;24.30;71.80
23147;DHT22;11742;53.532;-1.478;2022-07-30T14:47:11;24.40;72.20
23147;DHT22;11742;53.532;-1.478;2022-07-30T14:49:38;24.40;72.10
23147;DHT22;11742;53.532;-1.478;2022-07-30T14:52:04;24.40;72.00
23147;DHT22;11742;53.532;-1.478;2022-07-30T14:54:30;24.40;72.10
23147;DHT22;11742;53.532;-1.478;2022-07-30T14:56:56;24.40;72.00
23147;DHT22;11742;53.532;-1.478;2022-07-30T14:59:22;24.40;74.20
23147;DHT22;11742;53.532;-1.478;2022-07-30T15:01:48;24.40;76.50
23147;DHT22;11742;53.532;-1.478;2022-07-30T15:04:14;24.20;77.60
23147;DHT22;11742;53.532;-1.478;2022-07-30T15:06:40;24.20;77.80
23147;DHT22;11742;53.532;-1.478;2022-07-30T15:09:07;24.00;77.80
23147;DHT22;11742;53.532;-1.478;2022-07-30T15:11:33;23.90;78.50
23147;DHT22;11742;53.532;-1.478;2022-07-30T15:13:58;23.90;78.70
23147;DHT22;11742;53.532;-1.478;2022-07-30T15:16:24;23.80;79.20
23147;DHT22;11742;53.532;-1.478;2022-07-30T15:18:50;23.90;78.60
23147;DHT22;11742;53.532;-1.478;2022-07-30T15:21:16;24.00;77.10
23147;DHT22;11742;53.532;-1.478;2022-07-30T15:23:42;24.00;76.10
23147;DHT22;11742;53.532;-1.478;2022-07-30T15:26:07;24.10;75.70
23147;DHT22;11742;53.532;-1.478;2022-07-30T15:28:33;24.10;76.10
23147;DHT22;11742;53.532;-1.478;2022-07-30T15:30:59;24.10;75.00
23147;DHT22;11742;53.532;-1.478;2022-07-30T15:33:25;24.20;74.80
23147;DHT22;11742;53.532;-1.478;2022-07-30T15:35:51;24.20;74.50
23147;DHT22;11742;53.532;-1.478;2022-07-30T15:38:16;24.20;74.30
23147;DHT22;11742;53.532;-1.478;2022-07-30T15:40:42;24.20;74.00
23147;DHT22;11742;53.532;-1.478;2022-07-30T15:43:09;24.30;74.00
23147;DHT22;11742;53.532;-1.478;2022-07-30T15:45:35;24.10;78.90
23147;DHT22;11742;53.532;-1.478;2022-07-30T15:48:00;24.10;78.50